Terminal Aerodrome Forecast
Issued by NWS

Home | Current Version | Previous Version | Graphics & Text | Print | Product List | Glossary On
Versions: 1 2 3 4 5 6 7 8 9 10 11 12 13 14 15
000
FTUS43 KMPX 122300
TAFRWF
TAF
KRWF 122335Z 1300/1324 29005KT P6SM FEW120
     FM131300 31012KT P6SM SKC
     FM131700 31014G20KT P6SM FEW060=

USA.gov is the U.S. government's official web portal to all federal, state and local government web resources and services.